createdAt,value
2018-11-27T00:00:39.266Z,23.09
2018-11-27T00:01:39.255Z,23.09
2018-11-27T00:02:39.230Z,23.09
2018-11-27T00:03:39.223Z,23.07
2018-11-27T00:04:39.217Z,23.09
2018-11-27T00:05:39.217Z,23.04
2018-11-27T00:06:39.192Z,23.10
2018-11-27T00:07:39.222Z,23.12
2018-11-27T00:08:39.163Z,23.12
2018-11-27T00:09:39.153Z,23.10
2018-11-27T00:10:39.171Z,23.06
2018-11-27T00:11:39.132Z,23.12
2018-11-27T00:12:39.131Z,23.09
2018-11-27T00:13:39.121Z,23.10
2018-11-27T00:14:39.110Z,23.07
2018-11-27T00:15:39.103Z,23.10
2018-11-27T00:16:39.073Z,23.10
2018-11-27T00:17:39.080Z,23.10
2018-11-27T00:18:39.100Z,23.12
2018-11-27T00:19:39.061Z,23.09
2018-11-27T00:20:39.070Z,23.09
2018-11-27T00:21:39.022Z,23.15
2018-11-27T00:22:39.007Z,23.10
2018-11-27T00:23:39.033Z,23.12
2018-11-27T00:24:39.001Z,23.06
2018-11-27T00:25:39.003Z,23.10
2018-11-27T00:26:38.962Z,23.10
2018-11-27T00:27:38.955Z,23.16
2018-11-27T00:28:38.945Z,23.10
2018-11-27T00:29:38.929Z,23.10
2018-11-27T00:30:38.964Z,23.10
2018-11-27T00:31:38.942Z,23.12
2018-11-27T00:32:38.910Z,23.10
2018-11-27T00:33:38.886Z,23.09
2018-11-27T00:34:38.882Z,23.09
2018-11-27T00:35:38.889Z,23.09
2018-11-27T00:36:38.869Z,23.19
2018-11-27T00:37:38.911Z,23.09
2018-11-27T00:38:38.830Z,23.09
2018-11-27T00:39:38.829Z,23.10
2018-11-27T00:40:38.820Z,23.07
2018-11-27T00:41:38.810Z,23.09
2018-11-27T00:42:38.784Z,23.07
2018-11-27T00:43:38.850Z,23.16
2018-11-27T00:44:38.764Z,23.04
2018-11-27T00:45:38.761Z,23.15
2018-11-27T00:46:38.747Z,23.10
2018-11-27T00:47:38.732Z,23.14
2018-11-27T00:48:38.720Z,23.14
2018-11-27T00:49:38.704Z,23.07
2018-11-27T00:50:38.715Z,23.18
2018-11-27T00:51:38.685Z,23.16
2018-11-27T00:52:38.670Z,23.10
2018-11-27T00:53:38.680Z,23.18
2018-11-27T00:54:38.646Z,23.16
2018-11-27T00:55:38.647Z,23.18
2018-11-27T00:56:38.637Z,23.21
2018-11-27T00:57:38.631Z,23.12
2018-11-27T00:58:38.610Z,23.18
2018-11-27T00:59:38.600Z,23.14
2018-11-27T01:00:38.593Z,23.18
2018-11-27T01:01:38.579Z,23.18
2018-11-27T01:02:38.585Z,23.18
2018-11-27T01:03:38.565Z,23.15
2018-11-27T01:04:38.554Z,23.15
2018-11-27T01:05:38.545Z,23.16
2018-11-27T01:06:38.544Z,23.19
2018-11-27T01:07:38.519Z,23.19
2018-11-27T01:08:38.502Z,23.18
2018-11-27T01:09:38.486Z,23.04
2018-11-27T01:10:38.524Z,23.21
2018-11-27T01:11:38.498Z,23.18
2018-11-27T01:12:38.454Z,23.16
2018-11-27T01:13:38.464Z,23.21
2018-11-27T01:14:38.426Z,23.16
2018-11-27T01:15:38.493Z,23.10
2018-11-27T01:16:38.410Z,23.21
2018-11-27T01:17:38.407Z,23.12
2018-11-27T01:18:38.379Z,23.10
2018-11-27T01:19:38.398Z,23.04
2018-11-27T01:20:38.385Z,23.18
2018-11-27T01:21:38.371Z,23.10
2018-11-27T01:22:38.335Z,23.09
2018-11-27T01:23:38.325Z,23.14
2018-11-27T01:24:38.318Z,23.07
2018-11-27T01:25:38.337Z,23.09
2018-11-27T01:26:38.290Z,23.12
2018-11-27T01:27:38.291Z,23.10
2018-11-27T01:28:38.270Z,23.09
2018-11-27T01:29:38.284Z,23.25
2018-11-27T01:30:38.257Z,23.04
2018-11-27T01:31:38.239Z,23.10
2018-11-27T01:32:38.251Z,23.07
2018-11-27T01:33:38.238Z,23.10
2018-11-27T01:34:38.212Z,23.09
2018-11-27T01:35:38.206Z,23.12
2018-11-27T01:36:38.189Z,23.18
2018-11-27T01:37:38.193Z,23.16
2018-11-27T01:38:38.161Z,23.14
2018-11-27T01:39:38.158Z,23.06
2018-11-27T01:40:38.145Z,23.10
2018-11-27T01:41:38.123Z,23.16
2018-11-27T01:42:38.163Z,23.18
2018-11-27T01:43:38.103Z,23.09
2018-11-27T01:44:38.096Z,23.06
2018-11-27T01:45:38.104Z,23.07
2018-11-27T01:46:38.081Z,23.14
2018-11-27T01:47:38.065Z,23.09
2018-11-27T01:48:38.049Z,23.14
2018-11-27T01:49:38.047Z,23.14
2018-11-27T01:50:38.030Z,23.04
2018-11-27T01:51:38.009Z,23.12
2018-11-27T01:52:38.015Z,23.10
2018-11-27T01:53:37.997Z,23.06
2018-11-27T01:54:37.980Z,23.06
2018-11-27T01:55:37.983Z,23.12
2018-11-27T01:56:37.951Z,23.03
2018-11-27T01:57:37.940Z,23.12
2018-11-27T01:58:37.929Z,23.06
2018-11-27T01:59:37.931Z,23.04
2018-11-27T02:00:37.935Z,23.09
2018-11-27T02:01:37.915Z,23.06
2018-11-27T02:02:37.886Z,23.03
2018-11-27T02:03:37.876Z,23.03
2018-11-27T02:04:37.863Z,23.03
2018-11-27T02:05:37.853Z,23.09
2018-11-27T02:06:37.870Z,23.03
2018-11-27T02:07:37.829Z,23.09
2018-11-27T02:08:37.823Z,23.06
2018-11-27T02:09:37.809Z,22.96
2018-11-27T02:10:37.803Z,22.96
2018-11-27T02:11:37.795Z,23.00
2018-11-27T02:12:37.789Z,23.04
2018-11-27T02:13:37.760Z,22.97
2018-11-27T02:14:37.749Z,23.01
2018-11-27T02:15:37.802Z,23.03
2018-11-27T02:16:37.758Z,23.01
2018-11-27T02:17:37.725Z,22.99
2018-11-27T02:18:37.708Z,23.01
2018-11-27T02:19:37.748Z,22.99
2018-11-27T02:20:37.700Z,23.04
2018-11-27T02:21:37.699Z,23.06
2018-11-27T02:22:37.662Z,23.01
2018-11-27T02:23:37.673Z,23.00
2018-11-27T02:24:37.652Z,22.99
2018-11-27T02:25:37.633Z,23.01
2018-11-27T02:26:37.670Z,23.00
2018-11-27T02:27:37.628Z,23.03
2018-11-27T02:28:37.594Z,23.04
2018-11-27T02:29:37.585Z,23.04
2018-11-27T02:30:37.588Z,23.01
2018-11-27T02:31:37.576Z,22.99
2018-11-27T02:32:37.584Z,23.04
2018-11-27T02:33:37.539Z,23.03
2018-11-27T02:34:37.529Z,23.06
2018-11-27T02:35:37.559Z,23.00
2018-11-27T02:36:37.544Z,23.01
2018-11-27T02:37:37.515Z,23.06
2018-11-27T02:38:37.520Z,23.00
2018-11-27T02:39:37.476Z,23.03
2018-11-27T02:40:37.478Z,23.06
2018-11-27T02:41:37.480Z,23.04
2018-11-27T02:42:37.446Z,23.01
2018-11-27T02:43:37.473Z,23.04
2018-11-27T02:44:37.435Z,23.07
2018-11-27T02:45:44.932Z,23.01
2018-11-27T02:46:44.424Z,23.01
2018-11-27T02:47:44.940Z,23.01
2018-11-27T02:48:37.371Z,22.86
2018-11-27T02:49:37.360Z,22.92
2018-11-27T02:50:37.348Z,22.94
2018-11-27T02:51:37.365Z,22.94
2018-11-27T02:52:37.326Z,22.88
2018-11-27T02:53:37.314Z,22.89
2018-11-27T02:54:37.303Z,22.92
2018-11-27T02:55:37.295Z,22.85
2018-11-27T02:56:37.280Z,22.97
2018-11-27T02:57:37.281Z,22.92
2018-11-27T02:58:37.279Z,22.91
2018-11-27T02:59:37.268Z,22.89
2018-11-27T03:00:37.237Z,22.94
2018-11-27T03:01:37.240Z,22.92
2018-11-27T03:02:37.279Z,22.88
2018-11-27T03:03:37.205Z,22.84
2018-11-27T03:04:37.207Z,22.97
2018-11-27T03:05:37.188Z,22.96
2018-11-27T03:06:37.181Z,23.01
2018-11-27T03:07:37.177Z,22.89
2018-11-27T03:08:37.148Z,23.04
2018-11-27T03:09:37.135Z,23.03
2018-11-27T03:10:37.127Z,23.04
2018-11-27T03:11:37.119Z,23.06
2018-11-27T03:12:37.142Z,23.06
2018-11-27T03:13:37.094Z,23.10
2018-11-27T03:14:37.081Z,23.07
2018-11-27T03:15:37.073Z,23.09
2018-11-27T03:16:37.059Z,23.07
2018-11-27T03:17:37.064Z,23.07
2018-11-27T03:18:37.051Z,23.03
2018-11-27T03:19:37.025Z,23.03
2018-11-27T03:20:37.012Z,23.10
2018-11-27T03:21:37.024Z,23.06
2018-11-27T03:22:37.005Z,23.07
2018-11-27T03:23:36.982Z,23.10
2018-11-27T03:24:36.989Z,23.03
2018-11-27T03:25:36.977Z,23.03
2018-11-27T03:26:36.946Z,23.07
2018-11-27T03:27:36.955Z,23.03
2018-11-27T03:28:36.931Z,23.07
2018-11-27T03:29:36.928Z,23.10
2018-11-27T03:30:36.902Z,23.09
2018-11-27T03:31:36.894Z,23.03
2018-11-27T03:32:36.908Z,23.07
2018-11-27T03:33:36.870Z,23.12
2018-11-27T03:34:36.896Z,23.07
2018-11-27T03:35:36.843Z,23.12
2018-11-27T03:36:36.846Z,23.15
2018-11-27T03:37:36.896Z,23.14
2018-11-27T03:38:36.823Z,23.10
2018-11-27T03:39:36.801Z,23.07
2018-11-27T03:40:36.842Z,23.12
2018-11-27T03:41:36.778Z,23.10
2018-11-27T03:42:36.779Z,23.07
2018-11-27T03:43:36.771Z,23.03
2018-11-27T03:44:36.757Z,23.09
2018-11-27T03:45:36.734Z,23.14
2018-11-27T03:46:36.729Z,23.12
2018-11-27T03:47:36.777Z,23.07
2018-11-27T03:48:36.711Z,23.04
2018-11-27T03:49:36.695Z,23.07
2018-11-27T03:50:36.679Z,23.09
2018-11-27T03:51:36.671Z,23.09
2018-11-27T03:52:36.766Z,23.09
2018-11-27T03:53:36.646Z,23.12
2018-11-27T03:54:36.664Z,23.06
2018-11-27T03:55:36.641Z,23.07
2018-11-27T03:56:36.612Z,22.97
2018-11-27T03:57:36.696Z,23.06
2018-11-27T03:58:36.588Z,23.06
2018-11-27T03:59:36.588Z,23.09
2018-11-27T04:00:36.588Z,23.06
2018-11-27T04:01:36.585Z,22.96
2018-11-27T04:02:36.558Z,23.04
2018-11-27T04:03:36.531Z,23.03
2018-11-27T04:04:36.543Z,23.00
2018-11-27T04:05:36.515Z,22.97
2018-11-27T04:06:36.514Z,23.04
2018-11-27T04:07:36.545Z,22.89
2018-11-27T04:08:36.481Z,23.03
2018-11-27T04:09:36.465Z,22.89
2018-11-27T04:10:36.465Z,22.94
2018-11-27T04:11:36.450Z,23.03
2018-11-27T04:12:36.448Z,22.99
2018-11-27T04:13:36.426Z,22.88
2018-11-27T04:14:36.413Z,22.92
2018-11-27T04:15:36.398Z,22.86
2018-11-27T04:16:36.390Z,22.85
2018-11-27T04:17:36.423Z,22.92
2018-11-27T04:18:36.377Z,22.97
2018-11-27T04:19:36.358Z,22.97
2018-11-27T04:20:36.391Z,23.01
2018-11-27T04:21:36.330Z,22.99
2018-11-27T04:22:36.334Z,22.92
2018-11-27T04:23:36.311Z,22.92
2018-11-27T04:24:36.299Z,22.94
2018-11-27T04:25:36.309Z,22.94
2018-11-27T04:26:36.276Z,22.94
2018-11-27T04:27:36.292Z,22.94
2018-11-27T04:28:36.256Z,22.96
2018-11-27T04:29:36.250Z,22.89
2018-11-27T04:30:36.235Z,22.92
2018-11-27T04:31:36.224Z,22.92
2018-11-27T04:32:36.208Z,22.88
2018-11-27T04:33:36.242Z,22.88
2018-11-27T04:34:36.217Z,22.94
2018-11-27T04:35:36.184Z,22.94
2018-11-27T04:36:36.167Z,22.92
2018-11-27T04:37:36.185Z,22.96
2018-11-27T04:38:36.155Z,22.88
2018-11-27T04:39:36.132Z,22.91
2018-11-27T04:40:36.121Z,22.92
2018-11-27T04:41:36.117Z,22.86
2018-11-27T04:42:36.113Z,23.01
2018-11-27T04:43:36.118Z,22.96
2018-11-27T04:44:36.079Z,22.89
2018-11-27T04:45:36.080Z,22.92
2018-11-27T04:46:36.063Z,22.89
2018-11-27T04:47:36.043Z,22.96
2018-11-27T04:48:36.071Z,22.91
2018-11-27T04:49:36.021Z,22.94
2018-11-27T04:50:36.009Z,22.96
2018-11-27T04:51:36.013Z,22.91
2018-11-27T04:52:36.039Z,22.88
2018-11-27T04:53:35.998Z,22.91
2018-11-27T04:54:35.966Z,22.91
2018-11-27T04:55:35.964Z,22.96
2018-11-27T04:56:35.951Z,22.91
2018-11-27T04:57:35.941Z,22.89
2018-11-27T04:58:35.932Z,22.86
2018-11-27T04:59:35.906Z,22.88
2018-11-27T05:00:35.898Z,22.94
2018-11-27T05:01:35.889Z,22.92
2018-11-27T05:02:35.901Z,22.91
2018-11-27T05:03:35.874Z,22.89
2018-11-27T05:04:35.868Z,22.89
2018-11-27T05:05:35.839Z,22.88
2018-11-27T05:06:35.853Z,22.89
2018-11-27T05:07:35.819Z,22.92
2018-11-27T05:08:35.827Z,22.91
2018-11-27T05:09:35.794Z,22.92
2018-11-27T05:10:35.799Z,22.94
2018-11-27T05:11:35.823Z,22.91
2018-11-27T05:12:35.761Z,22.88
2018-11-27T05:13:35.765Z,22.91
2018-11-27T05:14:35.745Z,22.92
2018-11-27T05:15:35.740Z,22.86
2018-11-27T05:16:35.789Z,22.91
2018-11-27T05:17:35.706Z,22.91
2018-11-27T05:18:35.707Z,22.92
2018-11-27T05:19:35.708Z,22.94
2018-11-27T05:20:35.676Z,22.96
2018-11-27T05:21:35.678Z,22.86
2018-11-27T05:22:35.651Z,22.88
2018-11-27T05:23:35.651Z,22.92
2018-11-27T05:24:35.635Z,22.94
2018-11-27T05:25:35.631Z,22.94
2018-11-27T05:26:35.607Z,22.94
2018-11-27T05:27:35.606Z,22.92
2018-11-27T05:28:35.601Z,22.88
2018-11-27T05:29:35.585Z,22.88
2018-11-27T05:30:35.562Z,22.91
2018-11-27T05:31:35.579Z,22.86
2018-11-27T05:32:35.549Z,22.91
2018-11-27T05:33:35.547Z,22.89
2018-11-27T05:34:35.522Z,22.88
2018-11-27T05:35:35.511Z,22.89
2018-11-27T05:36:35.494Z,22.91
2018-11-27T05:37:35.507Z,22.88
2018-11-27T05:38:35.489Z,22.91
2018-11-27T05:39:35.459Z,22.89
2018-11-27T05:40:35.457Z,22.88
2018-11-27T05:41:35.480Z,22.92
2018-11-27T05:42:35.438Z,22.89
2018-11-27T05:43:35.437Z,22.88
2018-11-27T05:44:35.405Z,22.91
2018-11-27T05:45:35.402Z,22.81
2018-11-27T05:46:35.389Z,22.84
2018-11-27T05:47:35.457Z,22.86
2018-11-27T05:48:35.369Z,22.88
2018-11-27T05:49:35.360Z,22.85
2018-11-27T05:50:35.336Z,22.85
2018-11-27T05:51:35.330Z,22.82
2018-11-27T05:52:35.344Z,22.81
2018-11-27T05:53:35.336Z,22.86
2018-11-27T05:54:35.299Z,22.88
2018-11-27T05:55:35.319Z,22.88
2018-11-27T05:56:35.272Z,22.84
2018-11-27T05:57:35.256Z,22.92
2018-11-27T05:58:35.264Z,22.82
2018-11-27T05:59:35.242Z,22.92
2018-11-27T06:00:35.272Z,22.89
2018-11-27T06:01:35.234Z,22.89
2018-11-27T06:02:35.208Z,22.88
2018-11-27T06:03:35.213Z,22.91
2018-11-27T06:04:35.193Z,22.85
2018-11-27T06:05:35.189Z,22.85
2018-11-27T06:06:35.163Z,22.92
2018-11-27T06:07:35.147Z,22.92
2018-11-27T06:08:35.180Z,22.88
2018-11-27T06:09:35.124Z,22.88
2018-11-27T06:10:35.120Z,22.84
2018-11-27T06:11:35.104Z,22.86
2018-11-27T06:12:35.092Z,22.86
2018-11-27T06:13:35.079Z,22.86
2018-11-27T06:14:35.088Z,22.88
2018-11-27T06:15:35.076Z,22.82
2018-11-27T06:16:35.046Z,22.88
2018-11-27T06:17:35.035Z,22.92
2018-11-27T06:18:35.050Z,22.86
2018-11-27T06:19:35.023Z,22.85
2018-11-27T06:20:35.005Z,22.88
2018-11-27T06:21:35.010Z,22.81
2018-11-27T06:22:34.980Z,22.85
2018-11-27T06:23:34.975Z,22.86
2018-11-27T06:24:34.981Z,22.89
2018-11-27T06:25:35.045Z,22.92
2018-11-27T06:26:34.938Z,22.89
2018-11-27T06:27:34.925Z,22.86
2018-11-27T06:28:34.935Z,22.91
2018-11-27T06:29:34.918Z,22.88
2018-11-27T06:30:34.926Z,22.88
2018-11-27T06:31:34.883Z,22.94
2018-11-27T06:32:34.867Z,22.91
2018-11-27T06:33:34.861Z,22.89
2018-11-27T06:34:34.861Z,22.89
2018-11-27T06:35:34.842Z,22.92
2018-11-27T06:36:34.828Z,22.96
2018-11-27T06:37:34.831Z,22.86
2018-11-27T06:38:34.828Z,22.94
2018-11-27T06:39:34.820Z,22.88
2018-11-27T06:40:34.790Z,22.94
2018-11-27T06:41:34.778Z,22.91
2018-11-27T06:42:34.770Z,22.89
2018-11-27T06:43:34.745Z,22.94
2018-11-27T06:44:34.747Z,22.88
2018-11-27T06:45:34.739Z,22.92
2018-11-27T06:46:34.710Z,22.88
2018-11-27T06:47:42.272Z,22.94
2018-11-27T06:48:34.691Z,22.91
2018-11-27T06:49:43.385Z,22.97
2018-11-27T06:50:41.682Z,22.86
2018-11-27T06:51:34.671Z,22.86
2018-11-27T06:52:34.646Z,22.97
2018-11-27T06:53:34.633Z,22.92
2018-11-27T06:54:34.680Z,22.89
2018-11-27T06:55:34.613Z,22.92
2018-11-27T06:56:34.603Z,22.84
2018-11-27T06:57:34.588Z,22.97
2018-11-27T06:58:34.576Z,22.88
2018-11-27T06:59:34.584Z,22.89
2018-11-27T07:00:34.554Z,22.94
2018-11-27T07:01:34.554Z,22.92
2018-11-27T07:02:34.532Z,22.86
2018-11-27T07:03:34.523Z,22.99
2018-11-27T07:04:34.561Z,22.94
2018-11-27T07:05:34.512Z,22.89
2018-11-27T07:06:34.485Z,22.97
2018-11-27T07:07:34.502Z,22.92
2018-11-27T07:08:34.478Z,22.92
2018-11-27T07:09:34.457Z,22.97
2018-11-27T07:10:34.464Z,22.94
2018-11-27T07:11:34.430Z,22.96
2018-11-27T07:12:34.424Z,22.84
2018-11-27T07:13:34.441Z,22.97
2018-11-27T07:14:34.429Z,22.92
2018-11-27T07:15:34.400Z,22.86
2018-11-27T07:16:34.377Z,22.97
2018-11-27T07:17:34.394Z,22.97
2018-11-27T07:18:34.363Z,22.94
2018-11-27T07:19:34.343Z,22.97
2018-11-27T07:20:34.377Z,23.01
2018-11-27T07:21:34.332Z,23.07
2018-11-27T07:22:34.310Z,23.01
2018-11-27T07:23:34.298Z,22.86
2018-11-27T07:24:34.353Z,22.96
2018-11-27T07:25:34.301Z,22.97
2018-11-27T07:26:34.266Z,22.88
2018-11-27T07:27:34.273Z,22.86
2018-11-27T07:28:34.240Z,22.96
2018-11-27T07:29:34.231Z,22.94
2018-11-27T07:30:34.233Z,23.00
2018-11-27T07:31:34.255Z,22.97
2018-11-27T07:32:34.203Z,22.94
2018-11-27T07:33:34.188Z,22.97
2018-11-27T07:34:34.175Z,22.96
2018-11-27T07:35:34.184Z,22.92
2018-11-27T07:36:34.192Z,22.92
2018-11-27T07:37:34.165Z,23.00
2018-11-27T07:38:34.136Z,22.94
2018-11-27T07:39:34.125Z,22.89
2018-11-27T07:40:34.191Z,22.96
2018-11-27T07:41:34.117Z,23.00
2018-11-27T07:42:34.092Z,22.86
2018-11-27T07:43:34.075Z,22.88
2018-11-27T07:44:34.110Z,22.97
2018-11-27T07:45:34.082Z,22.88
2018-11-27T07:46:34.044Z,23.01
2018-11-27T07:47:34.035Z,22.85
2018-11-27T07:48:34.020Z,22.88
2018-11-27T07:49:34.015Z,22.92
2018-11-27T07:50:34.035Z,22.94
2018-11-27T07:51:33.987Z,23.01
2018-11-27T07:52:33.981Z,22.89
2018-11-27T07:53:33.970Z,22.92
2018-11-27T07:54:33.959Z,22.97
2018-11-27T07:55:33.949Z,22.88
2018-11-27T07:56:33.955Z,22.91
2018-11-27T07:57:33.919Z,22.96
2018-11-27T07:58:33.912Z,22.92
2018-11-27T07:59:33.894Z,22.99
2018-11-27T08:00:33.952Z,22.92
2018-11-27T08:01:33.901Z,22.86
2018-11-27T08:02:33.861Z,22.96
2018-11-27T08:03:33.851Z,23.01
2018-11-27T08:04:33.847Z,22.91
2018-11-27T08:05:33.844Z,22.89
2018-11-27T08:06:33.833Z,22.91
2018-11-27T08:07:33.808Z,22.91
2018-11-27T08:08:33.793Z,22.88
2018-11-27T08:09:33.814Z,22.94
2018-11-27T08:10:33.802Z,22.89
2018-11-27T08:11:33.791Z,22.94
2018-11-27T08:12:33.754Z,22.89
2018-11-27T08:13:33.746Z,22.89
2018-11-27T08:14:33.731Z,22.89
2018-11-27T08:15:33.725Z,22.89
2018-11-27T08:16:33.727Z,22.86
2018-11-27T08:17:33.715Z,22.86
2018-11-27T08:18:33.685Z,22.84
2018-11-27T08:19:33.672Z,22.81
2018-11-27T08:20:33.664Z,22.88
2018-11-27T08:21:33.666Z,22.91
2018-11-27T08:22:33.640Z,22.88
2018-11-27T08:23:33.652Z,22.86
2018-11-27T08:24:33.622Z,22.91
2018-11-27T08:25:33.609Z,22.89
2018-11-27T08:26:33.608Z,22.86
2018-11-27T08:27:33.582Z,22.85
2018-11-27T08:28:33.579Z,22.88
2018-11-27T08:29:33.562Z,22.84
2018-11-27T08:30:33.551Z,22.86
2018-11-27T08:31:33.553Z,22.85
2018-11-27T08:32:33.534Z,22.85
2018-11-27T08:33:33.545Z,22.86
2018-11-27T08:34:33.505Z,22.89
2018-11-27T08:35:33.511Z,22.86
2018-11-27T08:36:33.564Z,22.91
2018-11-27T08:37:33.472Z,22.91
2018-11-27T08:38:33.471Z,22.88
2018-11-27T08:39:33.447Z,22.92
2018-11-27T08:40:33.452Z,22.91
2018-11-27T08:41:40.256Z,22.96
2018-11-27T08:42:34.426Z,22.86
2018-11-27T08:43:33.405Z,22.91
2018-11-27T08:44:33.401Z,22.89
2018-11-27T08:45:33.393Z,22.91
2018-11-27T08:46:33.407Z,22.92
2018-11-27T08:47:33.387Z,22.92
2018-11-27T08:48:33.347Z,22.92
2018-11-27T08:49:33.345Z,22.92
2018-11-27T08:50:33.325Z,22.89
2018-11-27T08:51:33.352Z,22.89
2018-11-27T08:52:33.325Z,22.91
2018-11-27T08:53:33.307Z,22.92
2018-11-27T08:54:33.286Z,22.92
2018-11-27T08:55:33.281Z,22.94
2018-11-27T08:56:33.288Z,22.89
2018-11-27T08:57:33.265Z,22.92
2018-11-27T08:58:33.248Z,22.91
2018-11-27T08:59:33.266Z,22.92
2018-11-27T09:00:33.220Z,22.92
2018-11-27T09:01:33.215Z,22.94
2018-11-27T09:02:33.206Z,22.88
2018-11-27T09:03:33.197Z,22.94
2018-11-27T09:04:33.169Z,22.91
2018-11-27T09:05:33.164Z,22.88
2018-11-27T09:06:33.160Z,22.94
2018-11-27T09:07:33.149Z,22.89
2018-11-27T09:08:33.174Z,22.94
2018-11-27T09:09:33.139Z,22.99
2018-11-27T09:10:33.099Z,23.01
2018-11-27T09:11:33.091Z,22.94
2018-11-27T09:12:33.097Z,22.86
2018-11-27T09:13:33.068Z,22.94
2018-11-27T09:14:33.080Z,22.96
2018-11-27T09:15:33.051Z,23.03
2018-11-27T09:16:33.076Z,23.01
2018-11-27T09:17:33.038Z,23.03
2018-11-27T09:18:33.026Z,23.00
2018-11-27T09:19:33.038Z,23.00
2018-11-27T09:20:32.993Z,23.04
2018-11-27T09:21:32.995Z,22.99
2018-11-27T09:22:33.032Z,22.96
2018-11-27T09:23:32.966Z,23.00
2018-11-27T09:24:32.952Z,23.04
2018-11-27T09:25:32.944Z,23.06
2018-11-27T09:26:32.929Z,23.06
2018-11-27T09:27:32.928Z,23.00
2018-11-27T09:28:32.908Z,23.06
2018-11-27T09:29:32.892Z,23.03
2018-11-27T09:30:32.905Z,23.04
2018-11-27T09:31:32.871Z,23.01
2018-11-27T09:32:32.892Z,23.04
2018-11-27T09:33:32.856Z,22.99
2018-11-27T09:34:32.848Z,23.09
2018-11-27T09:35:32.826Z,22.99
2018-11-27T09:36:32.847Z,23.07
2018-11-27T09:37:32.823Z,23.01
2018-11-27T09:38:32.801Z,22.99
2018-11-27T09:39:32.777Z,22.99
2018-11-27T09:40:32.773Z,23.00
2018-11-27T09:41:32.759Z,23.03
2018-11-27T09:42:32.778Z,22.97
2018-11-27T09:43:32.739Z,22.96
2018-11-27T09:44:32.725Z,23.03
2018-11-27T09:45:32.732Z,22.97
2018-11-27T09:46:32.702Z,23.09
2018-11-27T09:47:32.755Z,23.03
2018-11-27T09:48:32.678Z,23.03
2018-11-27T09:49:32.678Z,23.00
2018-11-27T09:50:32.661Z,22.99
2018-11-27T09:51:32.660Z,22.96
2018-11-27T09:52:32.654Z,23.00
2018-11-27T09:53:32.635Z,22.97
2018-11-27T09:54:32.853Z,23.07
2018-11-27T09:55:32.623Z,23.01
2018-11-27T09:56:32.600Z,22.92
2018-11-27T09:57:32.605Z,23.01
2018-11-27T09:58:32.579Z,23.03
2018-11-27T09:59:32.567Z,22.97
2018-11-27T10:00:32.548Z,23.07
2018-11-27T10:01:32.547Z,23.01
2018-11-27T10:02:32.559Z,22.97
2018-11-27T10:03:32.510Z,23.01
2018-11-27T10:04:32.505Z,22.97
2018-11-27T10:05:32.520Z,22.94
2018-11-27T10:06:32.493Z,23.01
2018-11-27T10:07:32.496Z,23.03
2018-11-27T10:08:32.487Z,22.92
2018-11-27T10:09:32.444Z,23.00
2018-11-27T10:10:32.437Z,22.96
2018-11-27T10:11:32.421Z,22.97
2018-11-27T10:12:32.425Z,22.94
2018-11-27T10:13:32.413Z,23.03
2018-11-27T10:14:32.448Z,22.99
2018-11-27T10:15:32.390Z,22.89
2018-11-27T10:16:32.374Z,22.94
2018-11-27T10:17:32.374Z,22.94
2018-11-27T10:18:32.366Z,22.85
2018-11-27T10:19:32.361Z,22.97
2018-11-27T10:20:32.321Z,22.97
2018-11-27T10:21:32.407Z,22.94
2018-11-27T10:22:32.340Z,22.92
2018-11-27T10:23:32.290Z,22.92
2018-11-27T10:24:32.338Z,22.92
2018-11-27T10:25:32.271Z,22.99
2018-11-27T10:26:32.255Z,22.92
2018-11-27T10:27:32.246Z,22.94
2018-11-27T10:28:32.281Z,22.92
2018-11-27T10:29:32.222Z,22.99
2018-11-27T10:30:32.218Z,22.89
2018-11-27T10:31:32.203Z,22.92
2018-11-27T10:32:32.197Z,22.86
2018-11-27T10:33:32.189Z,22.96
2018-11-27T10:34:32.179Z,22.97
2018-11-27T10:35:32.163Z,22.92
2018-11-27T10:36:32.266Z,22.92
2018-11-27T10:37:32.141Z,22.85
2018-11-27T10:38:32.191Z,22.86
2018-11-27T10:39:32.126Z,22.89
2018-11-27T10:40:32.108Z,22.91
2018-11-27T10:41:32.112Z,22.86
2018-11-27T10:42:32.141Z,22.91
2018-11-27T10:43:32.081Z,22.91
2018-11-27T10:44:32.061Z,22.96
2018-11-27T10:45:32.050Z,22.92
2018-11-27T10:46:32.037Z,22.89
2018-11-27T10:47:32.020Z,22.96
2018-11-27T10:48:32.027Z,22.92
2018-11-27T10:49:32.043Z,22.91
2018-11-27T10:50:31.987Z,22.91
2018-11-27T10:51:32.034Z,23.01
2018-11-27T10:52:31.977Z,22.94
2018-11-27T10:53:31.978Z,22.94
2018-11-27T10:54:31.966Z,22.91
2018-11-27T10:55:39.463Z,23.01
2018-11-27T10:56:38.932Z,23.01
2018-11-27T10:57:38.919Z,22.91
2018-11-27T10:58:31.915Z,22.89
2018-11-27T10:59:31.886Z,22.96
2018-11-27T11:00:31.874Z,22.97
2018-11-27T11:01:31.865Z,22.88
2018-11-27T11:02:31.853Z,22.86
2018-11-27T11:03:31.854Z,22.96
2018-11-27T11:04:31.869Z,22.89
2018-11-27T11:05:31.859Z,22.92
2018-11-27T11:06:31.808Z,22.91
2018-11-27T11:07:31.824Z,22.91
2018-11-27T11:08:31.811Z,22.91
2018-11-27T11:09:31.797Z,22.84
2018-11-27T11:10:31.793Z,22.97
2018-11-27T11:11:31.760Z,22.89
2018-11-27T11:12:31.747Z,23.00
2018-11-27T11:13:31.755Z,22.89
2018-11-27T11:14:31.785Z,22.89
2018-11-27T11:15:31.725Z,22.88
2018-11-27T11:16:31.728Z,22.94
2018-11-27T11:17:31.704Z,22.92
2018-11-27T11:18:31.689Z,22.89
2018-11-27T11:19:31.664Z,23.00
2018-11-27T11:20:31.713Z,22.92
2018-11-27T11:21:31.654Z,23.01
2018-11-27T11:22:31.634Z,22.94
2018-11-27T11:23:31.640Z,23.01
2018-11-27T11:24:31.613Z,23.12
2018-11-27T11:25:31.617Z,23.03
2018-11-27T11:26:31.593Z,23.03
2018-11-27T11:27:31.607Z,23.07
2018-11-27T11:28:31.615Z,23.04
2018-11-27T11:29:31.553Z,23.09
2018-11-27T11:30:31.554Z,23.06
2018-11-27T11:31:31.532Z,23.09
2018-11-27T11:32:31.537Z,23.03
2018-11-27T11:33:31.531Z,23.04
2018-11-27T11:34:31.507Z,23.14
2018-11-27T11:35:31.484Z,23.09
2018-11-27T11:36:31.489Z,23.12
2018-11-27T11:37:31.481Z,23.09
2018-11-27T11:38:31.526Z,23.12
2018-11-27T11:39:31.441Z,23.12
2018-11-27T11:40:31.432Z,23.14
2018-11-27T11:41:31.543Z,23.06
2018-11-27T11:42:31.437Z,23.10
2018-11-27T11:43:31.405Z,23.09
2018-11-27T11:44:31.404Z,23.12
2018-11-27T11:45:31.374Z,23.07
2018-11-27T11:46:31.365Z,23.10
2018-11-27T11:47:31.352Z,23.14
2018-11-27T11:48:31.397Z,23.14
2018-11-27T11:49:31.346Z,23.06
2018-11-27T11:50:31.335Z,23.14
2018-11-27T11:51:31.309Z,23.10
2018-11-27T11:52:31.904Z,23.09
2018-11-27T11:53:31.292Z,23.10
2018-11-27T11:54:31.303Z,23.09
2018-11-27T11:55:31.271Z,23.10
2018-11-27T11:56:31.251Z,23.14
2018-11-27T11:57:31.243Z,23.09
2018-11-27T11:58:31.243Z,23.09
2018-11-27T11:59:31.247Z,23.12
2018-11-27T12:00:31.218Z,23.09
2018-11-27T12:01:31.192Z,23.06
2018-11-27T12:02:33.944Z,23.12
2018-11-27T12:03:31.178Z,23.07
2018-11-27T12:04:31.179Z,23.10
2018-11-27T12:05:31.165Z,23.12
2018-11-27T12:06:31.156Z,23.14
2018-11-27T12:07:31.125Z,23.09
2018-11-27T12:08:31.121Z,23.12
2018-11-27T12:09:31.119Z,23.16
2018-11-27T12:10:31.095Z,23.10
2018-11-27T12:11:31.099Z,23.09
2018-11-27T12:12:31.077Z,23.12
2018-11-27T12:13:31.070Z,23.12
2018-11-27T12:14:31.071Z,23.10
2018-11-27T12:15:31.039Z,23.19
2018-11-27T12:16:31.037Z,23.12
2018-11-27T12:17:31.025Z,23.14
2018-11-27T12:18:31.022Z,23.19
2018-11-27T12:19:31.005Z,23.15
2018-11-27T12:20:30.980Z,23.19
2018-11-27T12:21:30.972Z,23.25
2018-11-27T12:22:30.970Z,23.35
2018-11-27T12:23:30.963Z,23.32
2018-11-27T12:24:30.984Z,23.24
2018-11-27T12:25:30.924Z,23.28
2018-11-27T12:26:30.915Z,23.24
2018-11-27T12:27:30.903Z,23.24
2018-11-27T12:28:30.907Z,23.24
2018-11-27T12:29:30.909Z,23.32
2018-11-27T12:30:30.874Z,23.35
2018-11-27T12:31:30.864Z,23.28
2018-11-27T12:32:30.848Z,23.35
2018-11-27T12:33:30.836Z,23.32
2018-11-27T12:34:30.876Z,23.32
2018-11-27T12:35:30.835Z,23.38
2018-11-27T12:36:30.824Z,23.35
2018-11-27T12:37:30.790Z,23.38
2018-11-27T12:38:30.781Z,23.41
2018-11-27T12:39:30.784Z,23.38
2018-11-27T12:40:30.771Z,23.38
2018-11-27T12:41:30.745Z,23.34
2018-11-27T12:42:30.741Z,23.37
2018-11-27T12:43:30.732Z,23.37
2018-11-27T12:44:30.820Z,23.34
2018-11-27T12:45:30.725Z,23.37
2018-11-27T12:46:30.690Z,23.42
2018-11-27T12:47:30.680Z,23.32
2018-11-27T12:48:30.703Z,23.41
2018-11-27T12:49:30.657Z,23.35
2018-11-27T12:50:30.667Z,23.34
2018-11-27T12:51:30.636Z,23.38
2018-11-27T12:52:30.630Z,23.38